Time;durP1;ratioP1;P1;durP2;ratioP2;P2;SDS_P1;SDS_P2;PMS_P1;PMS_P2;Temp;Humidity;BMP_temperature;BMP_pressure;BME280_temperature;BME280_humidity;BME280_pressure;Samples;Min_cycle;Max_cycle;Signal;HPM_P1;HPM_P2
2021/06/30 00:01:03;;;;;;;1.55;1.10;;;;;;;;;;5110907;28;20207;-92
2021/06/30 00:03:58;;;;;;;1.20;1.20;;;;;;;;;;5110739;28;20315;-92
2021/06/30 00:06:26;;;;;;;1.10;1.08;;;;;;;;;;5110618;28;20665;-92
2021/06/30 00:08:55;;;;;;;1.10;1.00;;;;;;;;;;5110565;28;20187;-91
2021/06/30 00:11:30;;;;;;;1.05;1.05;;;;;;;;;;5110566;28;20196;-92
2021/06/30 00:13:57;;;;;;;1.27;1.27;;;;;;;;;;5110101;28;20309;-92
2021/06/30 00:16:31;;;;;;;1.65;1.55;;;;;;;;;;5110490;28;20282;-92
2021/06/30 00:19:00;;;;;;;1.80;1.70;;;;;;;;;;5104012;28;20207;-92
2021/06/30 00:21:34;;;;;;;1.60;1.50;;;;;;;;;;5089965;28;20209;-91
2021/06/30 00:24:02;;;;;;;2.38;2.17;;;;;;;;;;5090230;28;20310;-91
2021/06/30 00:26:31;;;;;;;1.90;1.70;;;;;;;;;;5089527;28;20207;-91
2021/06/30 00:29:04;;;;;;;1.75;1.65;;;;;;;;;;5089970;28;20296;-91
2021/06/30 00:31:40;;;;;;;2.00;1.90;;;;;;;;;;5089654;28;20181;-91
2021/06/30 00:34:08;;;;;;;2.05;1.95;;;;;;;;;;5089993;28;20313;-91
2021/06/30 00:36:43;;;;;;;2.58;2.38;;;;;;;;;;5090075;28;20219;-91
2021/06/30 00:39:27;;;;;;;2.58;2.38;;;;;;;;;;5093689;28;20204;-91
2021/06/30 00:42:17;;;;;;;1.67;1.58;;;;;;;;;;5094179;28;20204;-91
2021/06/30 00:48:30;;;;;;;1.00;1.00;;;;;;;;;;5093998;28;20329;-90
2021/06/30 00:50:57;;;;;;;1.00;1.00;;;;;;;;;;5093878;28;20184;-90
2021/06/30 00:53:28;;;;;;;1.10;1.10;;;;;;;;;;5094450;28;20216;-90
2021/06/30 00:56:22;;;;;;;1.10;1.00;;;;;;;;;;5094543;28;20200;-91
2021/06/30 00:58:59;;;;;;;1.00;0.85;;;;;;;;;;5094731;28;20216;-91
2021/06/30 01:01:46;;;;;;;1.00;1.00;;;;;;;;;;5094334;28;20203;-91
2021/06/30 01:04:29;;;;;;;1.00;1.00;;;;;;;;;;5094481;28;20224;-91
2021/06/30 01:07:02;;;;;;;1.40;1.30;;;;;;;;;;5094316;28;20181;-90
2021/06/30 01:09:32;;;;;;;1.60;1.50;;;;;;;;;;5093944;28;20188;-91
2021/06/30 01:12:16;;;;;;;1.20;1.20;;;;;;;;;;5094377;28;20176;-90
2021/06/30 01:14:46;;;;;;;1.20;1.20;;;;;;;;;;5093398;28;20319;-91
2021/06/30 01:17:17;;;;;;;1.33;1.27;;;;;;;;;;5093688;28;20201;-91
2021/06/30 01:19:49;;;;;;;0.90;0.90;;;;;;;;;;5093502;28;20865;-91
2021/06/30 01:22:26;;;;;;;1.08;1.08;;;;;;;;;;5093110;28;20177;-90
2021/06/30 01:25:09;;;;;;;1.00;1.00;;;;;;;;;;5093201;28;20224;-90
2021/06/30 01:27:50;;;;;;;0.88;0.88;;;;;;;;;;5095723;28;20196;-90
2021/06/30 01:30:19;;;;;;;1.35;1.25;;;;;;;;;;5095914;28;20197;-88
2021/06/30 01:32:54;;;;;;;1.40;1.30;;;;;;;;;;5095379;28;20187;-90
2021/06/30 01:35:30;;;;;;;1.70;1.60;;;;;;;;;;5095604;28;20560;-90
2021/06/30 01:38:12;;;;;;;1.80;1.70;;;;;;;;;;5095465;28;20200;-90
2021/06/30 01:41:42;;;;;;;2.40;1.95;;;;;;;;;;5095848;28;20192;-91
2021/06/30 01:44:12;;;;;;;1.58;1.48;;;;;;;;;;5095147;28;20272;-89
2021/06/30 01:46:41;;;;;;;1.70;1.60;;;;;;;;;;5095455;28;20181;-89
2021/06/30 01:49:10;;;;;;;1.60;1.50;;;;;;;;;;5094309;28;20545;-89
2021/06/30 01:51:38;;;;;;;1.42;1.30;;;;;;;;;;5094428;28;20206;-89
2021/06/30 01:54:11;;;;;;;1.10;1.10;;;;;;;;;;5095170;28;20221;-89
2021/06/30 01:56:49;;;;;;;1.65;1.55;;;;;;;;;;5095395;28;20219;-90
2021/06/30 01:59:18;;;;;;;2.00;1.90;;;;;;;;;;5095061;28;20183;-90
2021/06/30 02:02:16;;;;;;;4.03;2.05;;;;;;;;;;5095026;28;20197;-88
2021/06/30 02:05:00;;;;;;;2.30;1.70;;;;;;;;;;5095007;28;20224;-90
2021/06/30 02:07:33;;;;;;;1.80;1.48;;;;;;;;;;5094722;28;20699;-90
2021/06/30 02:10:10;;;;;;;1.40;1.30;;;;;;;;;;5094752;28;20176;-90
2021/06/30 02:13:00;;;;;;;1.70;1.60;;;;;;;;;;5094975;28;20195;-90
2021/06/30 02:15:42;;;;;;;1.23;1.13;;;;;;;;;;5074530;28;20193;-90
2021/06/30 02:18:22;;;;;;;1.20;1.20;;;;;;;;;;5074404;28;20192;-89
2021/06/30 02:20:57;;;;;;;1.27;1.20;;;;;;;;;;5074611;28;20212;-89
2021/06/30 02:23:35;;;;;;;1.50;1.40;;;;;;;;;;5074086;28;20217;-89
2021/06/30 02:26:04;;;;;;;1.60;1.50;;;;;;;;;;5074238;28;20181;-89
2021/06/30 02:28:57;;;;;;;1.10;1.10;;;;;;;;;;5074402;28;20189;-90
2021/06/30 02:31:28;;;;;;;1.13;1.13;;;;;;;;;;5074312;28;20185;-90
2021/06/30 02:33:55;;;;;;;1.50;1.40;;;;;;;;;;5074240;28;20231;-90
2021/06/30 02:36:28;;;;;;;1.40;1.38;;;;;;;;;;5074201;28;20188;-90
2021/06/30 02:39:03;;;;;;;1.23;1.20;;;;;;;;;;5074189;28;20571;-90
2021/06/30 02:41:32;;;;;;;1.20;1.20;;;;;;;;;;5074294;28;20181;-89
2021/06/30 02:44:01;;;;;;;1.10;1.10;;;;;;;;;;5072896;28;20229;-90
2021/06/30 02:46:31;;;;;;;1.10;1.10;;;;;;;;;;5089940;28;20275;-90
2021/06/30 02:49:00;;;;;;;1.10;1.10;;;;;;;;;;5090425;28;20218;-88
2021/06/30 02:51:29;;;;;;;0.98;0.98;;;;;;;;;;5085248;28;20287;-89
2021/06/30 02:53:59;;;;;;;1.25;1.15;;;;;;;;;;5094058;28;20721;-89
2021/06/30 02:56:29;;;;;;;1.17;1.15;;;;;;;;;;5087178;28;20688;-89
2021/06/30 02:59:11;;;;;;;0.80;0.80;;;;;;;;;;5075327;28;20197;-89
2021/06/30 03:01:44;;;;;;;0.93;0.93;;;;;;;;;;5073564;28;20196;-89
2021/06/30 03:04:25;;;;;;;0.88;0.88;;;;;;;;;;5073375;28;20251;-90
2021/06/30 03:06:59;;;;;;;1.05;1.05;;;;;;;;;;5073265;28;20197;-90
2021/06/30 03:09:27;;;;;;;0.70;0.70;;;;;;;;;;5073377;28;20187;-89
2021/06/30 03:12:01;;;;;;;0.95;0.95;;;;;;;;;;5074173;28;20677;-90
2021/06/30 03:14:34;;;;;;;0.70;0.70;;;;;;;;;;5105033;28;20239;-90
2021/06/30 03:17:27;;;;;;;0.93;0.93;;;;;;;;;;5114050;28;20234;-90
2021/06/30 03:19:54;;;;;;;0.60;0.60;;;;;;;;;;5113194;28;20557;-90
2021/06/30 03:22:22;;;;;;;0.70;0.70;;;;;;;;;;5112072;28;20200;-90
2021/06/30 03:24:49;;;;;;;0.50;0.50;;;;;;;;;;5113029;28;20572;-90
2021/06/30 03:27:17;;;;;;;0.70;0.70;;;;;;;;;;5113274;28;20188;-90
2021/06/30 03:29:44;;;;;;;0.73;0.73;;;;;;;;;;5113020;28;20202;-89
2021/06/30 03:32:13;;;;;;;0.50;0.50;;;;;;;;;;5113038;28;20603;-92
2021/06/30 03:34:40;;;;;;;0.50;0.50;;;;;;;;;;5112865;28;20220;-90
2021/06/30 03:37:08;;;;;;;0.68;0.68;;;;;;;;;;5113329;28;20199;-90
2021/06/30 03:39:36;;;;;;;0.50;0.50;;;;;;;;;;5113333;28;20206;-89
2021/06/30 03:42:04;;;;;;;0.85;0.80;;;;;;;;;;5113114;28;20202;-90
2021/06/30 03:44:32;;;;;;;0.85;0.85;;;;;;;;;;5112851;28;20304;-89
2021/06/30 03:46:59;;;;;;;0.70;0.70;;;;;;;;;;5112777;28;20661;-90
2021/06/30 03:49:28;;;;;;;1.00;1.00;;;;;;;;;;5112992;28;20203;-90
2021/06/30 03:51:55;;;;;;;1.30;1.20;;;;;;;;;;5113090;28;20663;-90
2021/06/30 03:54:24;;;;;;;1.70;1.15;;;;;;;;;;5112850;28;20219;-90
2021/06/30 03:56:52;;;;;;;1.25;1.23;;;;;;;;;;5112934;28;20339;-89
2021/06/30 03:59:20;;;;;;;0.70;0.70;;;;;;;;;;5112880;28;20572;-89
2021/06/30 04:01:48;;;;;;;0.95;0.95;;;;;;;;;;5112652;28;20187;-89
2021/06/30 04:04:17;;;;;;;0.95;0.95;;;;;;;;;;5112976;28;20219;-90
2021/06/30 04:06:46;;;;;;;0.70;0.70;;;;;;;;;;5112674;28;20727;-89
2021/06/30 04:09:14;;;;;;;0.90;0.90;;;;;;;;;;5112819;28;20210;-89
2021/06/30 04:11:42;;;;;;;1.20;0.90;;;;;;;;;;5113007;28;20566;-90
2021/06/30 04:14:09;;;;;;;1.40;1.10;;;;;;;;;;5119026;28;20219;-89
2021/06/30 04:16:37;;;;;;;0.88;0.88;;;;;;;;;;5119436;28;20205;-89
2021/06/30 04:19:05;;;;;;;0.50;0.50;;;;;;;;;;5119402;28;20195;-89
2021/06/30 04:21:32;;;;;;;0.90;0.90;;;;;;;;;;5119585;28;20195;-89
2021/06/30 04:24:01;;;;;;;0.90;0.90;;;;;;;;;;5119313;28;20215;-90
2021/06/30 04:26:28;;;;;;;1.13;1.13;;;;;;;;;;5119496;28;20314;-89
2021/06/30 04:28:56;;;;;;;1.50;1.40;;;;;;;;;;5118989;28;20679;-90
2021/06/30 04:31:23;;;;;;;1.10;1.10;;;;;;;;;;5119329;28;20204;-88
2021/06/30 04:33:51;;;;;;;0.90;0.90;;;;;;;;;;5119154;28;20211;-89
2021/06/30 04:36:18;;;;;;;0.90;0.90;;;;;;;;;;5119306;28;20563;-89
2021/06/30 04:38:46;;;;;;;1.23;1.13;;;;;;;;;;5119264;28;20197;-89
2021/06/30 04:41:15;;;;;;;1.10;1.10;;;;;;;;;;5119122;28;20203;-89
2021/06/30 04:43:42;;;;;;;1.10;1.10;;;;;;;;;;5119300;28;20215;-89
2021/06/30 04:46:11;;;;;;;1.33;1.05;;;;;;;;;;5119179;28;20258;-89
2021/06/30 04:48:39;;;;;;;0.93;0.93;;;;;;;;;;5119265;28;20279;-89
2021/06/30 04:51:07;;;;;;;1.05;1.05;;;;;;;;;;5121949;28;20199;-88
2021/06/30 04:53:34;;;;;;;1.00;1.00;;;;;;;;;;5120581;28;20700;-89
2021/06/30 04:56:01;;;;;;;0.95;0.95;;;;;;;;;;5118986;28;20637;-88
2021/06/30 04:58:30;;;;;;;0.80;0.80;;;;;;;;;;5119265;28;20588;-89
2021/06/30 05:00:57;;;;;;;1.10;1.10;;;;;;;;;;5119163;28;20233;-88
2021/06/30 05:03:27;;;;;;;1.20;1.15;;;;;;;;;;5110590;28;20226;-89
2021/06/30 05:05:55;;;;;;;1.00;0.98;;;;;;;;;;5118932;28;20572;-88
2021/06/30 05:08:22;;;;;;;0.90;0.90;;;;;;;;;;5118924;28;20641;-88
2021/06/30 05:10:50;;;;;;;1.00;1.00;;;;;;;;;;5118478;28;20199;-89
2021/06/30 05:13:18;;;;;;;2.35;1.00;;;;;;;;;;5118271;28;20836;-88
2021/06/30 05:15:46;;;;;;;0.98;0.98;;;;;;;;;;5118938;28;20211;-89
2021/06/30 05:18:14;;;;;;;1.10;1.10;;;;;;;;;;5119114;28;20661;-88
2021/06/30 05:20:42;;;;;;;2.15;1.05;;;;;;;;;;5118657;28;20233;-88
2021/06/30 05:23:09;;;;;;;1.48;1.05;;;;;;;;;;5118916;28;20219;-89
2021/06/30 05:25:38;;;;;;;0.90;0.90;;;;;;;;;;5114269;28;20715;-88
2021/06/30 05:28:05;;;;;;;1.00;1.00;;;;;;;;;;5115600;28;20196;-88
2021/06/30 05:30:33;;;;;;;0.68;0.68;;;;;;;;;;5115186;28;20195;-88
2021/06/30 05:33:02;;;;;;;1.00;1.00;;;;;;;;;;5115223;28;20210;-88
2021/06/30 05:35:29;;;;;;;1.02;1.02;;;;;;;;;;5115316;28;20681;-88
2021/06/30 05:37:57;;;;;;;1.55;0.90;;;;;;;;;;5115592;28;20199;-88
2021/06/30 05:40:24;;;;;;;0.73;0.73;;;;;;;;;;5115540;28;20200;-88
2021/06/30 05:42:54;;;;;;;1.15;1.10;;;;;;;;;;5114716;28;20196;-88
2021/06/30 05:45:22;;;;;;;0.95;0.95;;;;;;;;;;5115286;28;20294;-89
2021/06/30 05:47:49;;;;;;;1.60;0.80;;;;;;;;;;5115057;28;20192;-89
2021/06/30 05:50:20;;;;;;;0.93;0.90;;;;;;;;;;5115303;28;20223;-90
2021/06/30 05:52:48;;;;;;;0.73;0.73;;;;;;;;;;5115352;28;20595;-90
2021/06/30 05:55:16;;;;;;;0.90;0.90;;;;;;;;;;5115205;28;20196;-89
2021/06/30 05:57:43;;;;;;;1.00;1.00;;;;;;;;;;5115138;28;20654;-89
2021/06/30 06:00:14;;;;;;;0.90;0.90;;;;;;;;;;5114782;28;20206;-90
2021/06/30 06:02:41;;;;;;;0.90;0.90;;;;;;;;;;5114861;28;20203;-89
2021/06/30 06:05:10;;;;;;;0.82;0.82;;;;;;;;;;5114657;28;20226;-89
2021/06/30 06:07:39;;;;;;;1.00;1.00;;;;;;;;;;5114858;28;20689;-89
2021/06/30 06:10:09;;;;;;;0.57;0.57;;;;;;;;;;5114639;28;20675;-89
2021/06/30 06:12:37;;;;;;;0.68;0.68;;;;;;;;;;5114679;28;20658;-89
2021/06/30 06:15:06;;;;;;;0.80;0.80;;;;;;;;;;5114330;28;20231;-89
2021/06/30 06:17:33;;;;;;;1.00;1.00;;;;;;;;;;5114531;28;20198;-89
2021/06/30 06:20:01;;;;;;;0.70;0.70;;;;;;;;;;5114679;28;20196;-89
2021/06/30 06:22:28;;;;;;;0.40;0.40;;;;;;;;;;5114479;28;20208;-89
2021/06/30 06:24:57;;;;;;;0.73;0.73;;;;;;;;;;5114376;28;20726;-89
2021/06/30 06:27:25;;;;;;;0.90;0.90;;;;;;;;;;5113659;28;20230;-90
2021/06/30 06:29:52;;;;;;;1.60;1.50;;;;;;;;;;5114354;28;20688;-89
2021/06/30 06:32:20;;;;;;;0.95;0.95;;;;;;;;;;5114634;28;20246;-89
2021/06/30 06:34:47;;;;;;;0.95;0.95;;;;;;;;;;5113757;28;20563;-89
2021/06/30 06:37:15;;;;;;;1.13;1.13;;;;;;;;;;5114522;28;20203;-89
2021/06/30 06:39:43;;;;;;;0.80;0.80;;;;;;;;;;5114433;28;20199;-89
2021/06/30 06:42:13;;;;;;;1.00;1.00;;;;;;;;;;5114036;28;20203;-89
2021/06/30 06:44:41;;;;;;;1.00;1.00;;;;;;;;;;5114044;28;20245;-89
2021/06/30 06:47:09;;;;;;;1.00;1.00;;;;;;;;;;5114140;28;20219;-89
2021/06/30 06:49:37;;;;;;;0.93;0.93;;;;;;;;;;5114078;28;20195;-88
2021/06/30 06:52:05;;;;;;;0.60;0.60;;;;;;;;;;5114096;28;20688;-88
2021/06/30 06:54:33;;;;;;;1.13;1.02;;;;;;;;;;5113793;28;20212;-89
2021/06/30 06:57:00;;;;;;;1.27;1.17;;;;;;;;;;5114114;28;20568;-88
2021/06/30 06:59:29;;;;;;;0.82;0.82;;;;;;;;;;5114110;28;20202;-89
2021/06/30 07:01:57;;;;;;;1.10;1.10;;;;;;;;;;5114041;28;20192;-89
2021/06/30 07:04:24;;;;;;;0.95;0.95;;;;;;;;;;5113719;28;20224;-89
2021/06/30 07:06:51;;;;;;;1.33;1.23;;;;;;;;;;5113809;28;20216;-89
2021/06/30 07:09:19;;;;;;;1.00;1.00;;;;;;;;;;5113950;28;20274;-88
2021/06/30 07:11:46;;;;;;;1.50;1.40;;;;;;;;;;5114480;28;20203;-89
2021/06/30 07:14:14;;;;;;;1.38;1.33;;;;;;;;;;5114243;28;20776;-89
2021/06/30 07:16:43;;;;;;;1.30;1.20;;;;;;;;;;5115269;28;20267;-89
2021/06/30 07:19:11;;;;;;;1.60;1.50;;;;;;;;;;5117958;28;20200;-89
2021/06/30 07:21:39;;;;;;;1.67;1.58;;;;;;;;;;5120017;28;20191;-89
2021/06/30 07:24:07;;;;;;;1.90;1.80;;;;;;;;;;5122556;28;20303;-89
2021/06/30 07:26:35;;;;;;;1.98;1.88;;;;;;;;;;5123310;28;20187;-89
2021/06/30 07:29:02;;;;;;;1.90;1.80;;;;;;;;;;5119357;28;20196;-89
2021/06/30 07:31:30;;;;;;;1.60;1.50;;;;;;;;;;5124647;28;20191;-88
2021/06/30 07:33:59;;;;;;;1.50;1.40;;;;;;;;;;5133237;28;20222;-89
2021/06/30 07:36:27;;;;;;;1.80;1.70;;;;;;;;;;5120810;28;20179;-87
2021/06/30 07:38:54;;;;;;;1.40;1.40;;;;;;;;;;5129971;28;20191;-86
2021/06/30 07:41:22;;;;;;;1.23;1.23;;;;;;;;;;5131823;28;20230;-90
2021/06/30 07:43:49;;;;;;;1.27;1.27;;;;;;;;;;5132086;28;20226;-87
2021/06/30 07:46:17;;;;;;;1.20;1.20;;;;;;;;;;5135736;28;20260;-88
2021/06/30 07:48:45;;;;;;;1.35;1.25;;;;;;;;;;5135489;28;20219;-89
2021/06/30 07:51:14;;;;;;;1.90;1.80;;;;;;;;;;5136926;28;20187;-91
2021/06/30 07:53:43;;;;;;;1.55;1.45;;;;;;;;;;5135169;28;20291;-90
2021/06/30 07:56:11;;;;;;;1.38;1.30;;;;;;;;;;5135974;28;20218;-89
2021/06/30 07:58:38;;;;;;;1.50;1.40;;;;;;;;;;5136011;28;20183;-88
2021/06/30 08:01:07;;;;;;;1.25;1.25;;;;;;;;;;5134773;28;20263;-88
2021/06/30 08:03:35;;;;;;;1.48;1.38;;;;;;;;;;5134309;28;20215;-91
2021/06/30 08:06:02;;;;;;;1.80;1.70;;;;;;;;;;5135342;28;20251;-89
2021/06/30 08:08:31;;;;;;;1.65;1.55;;;;;;;;;;5134517;28;20263;-88
2021/06/30 08:10:58;;;;;;;1.48;1.40;;;;;;;;;;5134421;28;20255;-89
2021/06/30 08:13:26;;;;;;;1.80;1.63;;;;;;;;;;5133210;28;20266;-89
2021/06/30 08:15:53;;;;;;;1.42;1.42;;;;;;;;;;5134302;28;20203;-88
2021/06/30 08:18:21;;;;;;;1.30;1.30;;;;;;;;;;5133927;28;20259;-89
2021/06/30 08:20:52;;;;;;;1.60;1.50;;;;;;;;;;5134167;28;20263;-88
2021/06/30 08:23:19;;;;;;;1.20;1.20;;;;;;;;;;5133707;28;20216;-89
2021/06/30 08:25:48;;;;;;;1.42;1.40;;;;;;;;;;5134198;28;20195;-88
2021/06/30 08:28:19;;;;;;;1.20;1.15;;;;;;;;;;5126245;28;20234;-88
2021/06/30 08:30:47;;;;;;;1.60;1.50;;;;;;;;;;5113472;28;20207;-89
2021/06/30 08:33:14;;;;;;;1.45;1.38;;;;;;;;;;5113565;28;20226;-88
2021/06/30 08:35:42;;;;;;;1.20;1.20;;;;;;;;;;5113155;28;20202;-89
2021/06/30 08:38:09;;;;;;;1.25;1.25;;;;;;;;;;5112972;28;20202;-88
2021/06/30 08:40:37;;;;;;;1.38;1.38;;;;;;;;;;5112628;28;20191;-87
2021/06/30 08:43:07;;;;;;;1.27;1.27;;;;;;;;;;5112892;28;20205;-89
2021/06/30 08:45:35;;;;;;;1.60;1.50;;;;;;;;;;5112752;28;20210;-89
2021/06/30 08:48:03;;;;;;;1.30;1.20;;;;;;;;;;5113103;28;20219;-88
2021/06/30 08:50:31;;;;;;;1.00;1.00;;;;;;;;;;5112881;28;20200;-88
2021/06/30 08:52:58;;;;;;;1.40;1.30;;;;;;;;;;5112683;28;20196;-89
2021/06/30 08:55:26;;;;;;;1.20;1.20;;;;;;;;;;5112437;28;20200;-88
2021/06/30 08:57:53;;;;;;;1.15;1.15;;;;;;;;;;5112739;28;20195;-89
2021/06/30 09:00:22;;;;;;;1.17;1.17;;;;;;;;;;5115799;28;20203;-88
2021/06/30 09:02:56;;;;;;;1.13;1.00;;;;;;;;;;5116349;28;20215;-88
2021/06/30 09:05:48;;;;;;;1.13;1.13;;;;;;;;;;5116338;28;20692;-89
2021/06/30 09:08:15;;;;;;;1.42;1.40;;;;;;;;;;5116329;28;20226;-89
2021/06/30 09:10:43;;;;;;;1.17;1.17;;;;;;;;;;5116427;28;20199;-88
2021/06/30 09:13:22;;;;;;;1.15;1.15;;;;;;;;;;5116038;28;20211;-89
2021/06/30 09:15:59;;;;;;;1.20;1.20;;;;;;;;;;5116217;28;20252;-89
2021/06/30 09:18:30;;;;;;;1.00;1.00;;;;;;;;;;5116191;28;20199;-89
2021/06/30 09:21:19;;;;;;;1.00;1.00;;;;;;;;;;5116060;28;20294;-89
2021/06/30 09:24:01;;;;;;;0.98;0.98;;;;;;;;;;5116106;28;20219;-89
2021/06/30 09:26:32;;;;;;;1.10;1.10;;;;;;;;;;5115993;28;20207;-88
2021/06/30 09:29:03;;;;;;;1.20;1.10;;;;;;;;;;5115720;28;20220;-89
2021/06/30 09:31:32;;;;;;;1.02;1.02;;;;;;;;;;5115712;28;20237;-88
2021/06/30 09:34:00;;;;;;;0.80;0.80;;;;;;;;;;5115808;28;20724;-89
2021/06/30 09:36:32;;;;;;;0.70;0.70;;;;;;;;;;5115734;28;20194;-88
2021/06/30 09:39:08;;;;;;;0.90;0.90;;;;;;;;;;5115646;28;20196;-88
2021/06/30 09:41:38;;;;;;;0.95;0.95;;;;;;;;;;5115787;28;20202;-88
2021/06/30 09:44:08;;;;;;;0.95;0.95;;;;;;;;;;5115258;28;20706;-88
2021/06/30 09:46:37;;;;;;;0.90;0.90;;;;;;;;;;5115409;28;20192;-88
2021/06/30 09:49:08;;;;;;;1.13;1.05;;;;;;;;;;5115083;28;20711;-89
2021/06/30 09:51:35;;;;;;;1.00;1.00;;;;;;;;;;5115061;28;20200;-89
2021/06/30 09:54:07;;;;;;;1.20;1.10;;;;;;;;;;5115079;28;20590;-89
2021/06/30 09:56:36;;;;;;;0.73;0.73;;;;;;;;;;5115390;28;20203;-89
2021/06/30 09:59:22;;;;;;;0.80;0.80;;;;;;;;;;5115236;28;20195;-88
2021/06/30 10:01:58;;;;;;;1.02;1.02;;;;;;;;;;5115039;28;20250;-88
2021/06/30 10:04:32;;;;;;;1.13;1.02;;;;;;;;;;5106565;28;20711;-89
2021/06/30 10:07:03;;;;;;;0.90;0.90;;;;;;;;;;5115139;28;20206;-88
2021/06/30 10:09:31;;;;;;;0.93;0.93;;;;;;;;;;5114679;27;20700;-89
2021/06/30 10:12:02;;;;;;;0.82;0.82;;;;;;;;;;5114442;28;20238;-88
2021/06/30 10:14:31;;;;;;;0.90;0.90;;;;;;;;;;5114583;28;20223;-88
2021/06/30 10:17:01;;;;;;;1.10;1.10;;;;;;;;;;5115175;28;20653;-88
2021/06/30 10:19:29;;;;;;;1.08;1.08;;;;;;;;;;5114730;28;20200;-88
2021/06/30 10:21:57;;;;;;;1.55;1.15;;;;;;;;;;5114828;28;20259;-88
2021/06/30 10:24:25;;;;;;;0.80;0.80;;;;;;;;;;5114993;28;20317;-88
2021/06/30 10:26:53;;;;;;;0.90;0.90;;;;;;;;;;5114666;28;20203;-88
2021/06/30 10:29:25;;;;;;;1.10;1.10;;;;;;;;;;5114802;28;20228;-88
2021/06/30 10:31:57;;;;;;;0.88;0.88;;;;;;;;;;5114862;28;20204;-88
2021/06/30 10:34:39;;;;;;;0.90;0.90;;;;;;;;;;5114412;28;20212;-88
2021/06/30 10:37:21;;;;;;;1.10;1.10;;;;;;;;;;5114298;28;20653;-89
2021/06/30 10:39:51;;;;;;;0.93;0.90;;;;;;;;;;5114716;28;20192;-88
2021/06/30 10:42:29;;;;;;;0.80;0.80;;;;;;;;;;5114250;28;20207;-88
2021/06/30 10:44:59;;;;;;;0.90;0.90;;;;;;;;;;5114527;28;20222;-88
2021/06/30 10:47:38;;;;;;;1.00;1.00;;;;;;;;;;5114126;28;20734;-89
2021/06/30 10:50:32;;;;;;;0.80;0.80;;;;;;;;;;5113967;28;20223;-88
2021/06/30 10:53:36;;;;;;;1.02;1.02;;;;;;;;;;5114236;28;20198;-89
2021/06/30 10:56:11;;;;;;;0.80;0.80;;;;;;;;;;5114296;28;20237;-88
2021/06/30 10:58:43;;;;;;;0.80;0.77;;;;;;;;;;5114120;28;20656;-88
2021/06/30 11:01:16;;;;;;;0.73;0.73;;;;;;;;;;5114130;28;20249;-88
2021/06/30 11:03:50;;;;;;;0.80;0.80;;;;;;;;;;5113741;28;20230;-88
2021/06/30 11:06:30;;;;;;;0.82;0.82;;;;;;;;;;5113771;28;20206;-88
2021/06/30 11:09:02;;;;;;;0.90;0.90;;;;;;;;;;5113954;28;20736;-88
2021/06/30 11:12:03;;;;;;;0.85;0.85;;;;;;;;;;5114143;28;20235;-88
2021/06/30 11:14:45;;;;;;;0.80;0.80;;;;;;;;;;5113723;28;20226;-88
2021/06/30 11:17:28;;;;;;;0.80;0.80;;;;;;;;;;5114052;28;20200;-88
2021/06/30 11:19:55;;;;;;;0.80;0.80;;;;;;;;;;5113192;28;20200;-88
2021/06/30 11:22:27;;;;;;;0.85;0.85;;;;;;;;;;5112711;28;20225;-88
2021/06/30 11:24:56;;;;;;;0.77;0.77;;;;;;;;;;5113617;28;20697;-89
2021/06/30 11:27:48;;;;;;;0.80;0.80;;;;;;;;;;5113500;28;20200;-88
2021/06/30 11:30:31;;;;;;;0.80;0.80;;;;;;;;;;5113606;28;20211;-88
2021/06/30 11:32:58;;;;;;;0.95;0.95;;;;;;;;;;5113587;28;20196;-88
2021/06/30 11:35:32;;;;;;;0.70;0.70;;;;;;;;;;5113491;28;20208;-88
2021/06/30 11:38:12;;;;;;;0.93;0.93;;;;;;;;;;5113622;28;20290;-88
2021/06/30 11:40:52;;;;;;;0.80;0.80;;;;;;;;;;5113802;28;20231;-88
2021/06/30 11:43:25;;;;;;;0.80;0.80;;;;;;;;;;5113104;28;20260;-88
2021/06/30 11:45:55;;;;;;;0.80;0.80;;;;;;;;;;5113130;28;20200;-88
2021/06/30 11:48:23;;;;;;;0.63;0.63;;;;;;;;;;5113377;28;20551;-88
2021/06/30 11:50:54;;;;;;;0.75;0.75;;;;;;;;;;5113256;28;20223;-88
2021/06/30 11:53:44;;;;;;;0.80;0.80;;;;;;;;;;5113419;28;20219;-88
2021/06/30 11:56:28;;;;;;;0.80;0.80;;;;;;;;;;5095464;28;20202;-88
2021/06/30 11:58:57;;;;;;;0.82;0.82;;;;;;;;;;5090218;28;20223;-89
2021/06/30 12:01:29;;;;;;;0.82;0.60;;;;;;;;;;5092640;28;20181;-87
2021/06/30 12:04:20;;;;;;;0.77;0.77;;;;;;;;;;5092633;28;20689;-87
2021/06/30 12:06:49;;;;;;;0.70;0.70;;;;;;;;;;5092746;28;20185;-87
2021/06/30 12:09:28;;;;;;;0.70;0.70;;;;;;;;;;5092712;28;20668;-87
2021/06/30 12:11:59;;;;;;;0.80;0.80;;;;;;;;;;5092704;28;20262;-88
2021/06/30 12:14:29;;;;;;;1.17;1.08;;;;;;;;;;5092726;28;20242;-88
2021/06/30 12:17:01;;;;;;;0.82;0.82;;;;;;;;;;5090753;28;20200;-88
2021/06/30 12:19:41;;;;;;;1.65;0.80;;;;;;;;;;5090806;28;20294;-88
2021/06/30 12:22:21;;;;;;;0.88;0.88;;;;;;;;;;5091338;28;20196;-88
2021/06/30 12:24:54;;;;;;;0.70;0.70;;;;;;;;;;5091711;28;20297;-89
2021/06/30 12:27:21;;;;;;;1.10;1.10;;;;;;;;;;5092188;28;20553;-88
2021/06/30 12:29:57;;;;;;;0.82;0.82;;;;;;;;;;5092021;28;20220;-87
2021/06/30 12:32:27;;;;;;;0.98;0.95;;;;;;;;;;5092418;28;20239;-88
2021/06/30 12:35:00;;;;;;;0.63;0.63;;;;;;;;;;5095429;28;20255;-89
2021/06/30 12:37:28;;;;;;;1.02;0.88;;;;;;;;;;5096711;28;20185;-88
2021/06/30 12:39:59;;;;;;;0.73;0.73;;;;;;;;;;5096221;28;20192;-87
2021/06/30 12:42:48;;;;;;;1.00;0.90;;;;;;;;;;5096409;28;20196;-87
2021/06/30 12:45:19;;;;;;;1.10;1.10;;;;;;;;;;5096091;28;20201;-87
2021/06/30 12:47:58;;;;;;;0.75;0.75;;;;;;;;;;5096296;28;20184;-87
2021/06/30 12:50:35;;;;;;;1.05;1.05;;;;;;;;;;5096160;28;20224;-86
2021/06/30 12:53:11;;;;;;;0.90;0.90;;;;;;;;;;5095985;28;20287;-87
2021/06/30 12:56:02;;;;;;;1.20;1.10;;;;;;;;;;5096212;28;20242;-90
2021/06/30 12:58:43;;;;;;;0.80;0.80;;;;;;;;;;5095857;28;20196;-89
2021/06/30 13:01:13;;;;;;;0.90;0.90;;;;;;;;;;5095937;28;20634;-88
2021/06/30 13:03:49;;;;;;;1.00;1.00;;;;;;;;;;5096076;28;20253;-87
2021/06/30 13:06:18;;;;;;;2.03;1.15;;;;;;;;;;5095951;28;20283;-88
2021/06/30 13:08:48;;;;;;;1.10;1.10;;;;;;;;;;5095889;28;20196;-89
2021/06/30 13:11:21;;;;;;;1.10;1.10;;;;;;;;;;5095612;28;20224;-90
2021/06/30 13:14:00;;;;;;;0.90;0.90;;;;;;;;;;5095571;28;20228;-89
2021/06/30 13:16:29;;;;;;;0.80;0.80;;;;;;;;;;5096033;28;20181;-90
2021/06/30 13:18:58;;;;;;;0.80;0.80;;;;;;;;;;5095629;28;20219;-88
2021/06/30 13:21:29;;;;;;;0.98;0.98;;;;;;;;;;5095494;28;20654;-90
2021/06/30 13:24:14;;;;;;;1.27;0.77;;;;;;;;;;5109936;28;20212;-88
2021/06/30 13:35:45;;;;;;;0.68;0.68;;;;;;;;;;5095538;28;20212;-87
2021/06/30 13:38:17;;;;;;;1.15;1.08;;;;;;;;;;5095565;28;20192;-87
2021/06/30 13:40:51;;;;;;;0.60;0.60;;;;;;;;;;5095700;28;20212;-87
2021/06/30 13:43:20;;;;;;;0.85;0.85;;;;;;;;;;5095107;28;20222;-88
2021/06/30 13:45:50;;;;;;;0.90;0.90;;;;;;;;;;5093026;28;20196;-88
2021/06/30 13:48:23;;;;;;;0.80;0.80;;;;;;;;;;5094399;28;20208;-87
2021/06/30 13:50:53;;;;;;;1.45;0.80;;;;;;;;;;5094343;28;20274;-88
2021/06/30 13:53:21;;;;;;;0.90;0.90;;;;;;;;;;5094326;28;20224;-88
2021/06/30 13:55:49;;;;;;;0.73;0.73;;;;;;;;;;5094923;28;20291;-88
2021/06/30 13:58:17;;;;;;;0.80;0.80;;;;;;;;;;5094711;28;20580;-88
2021/06/30 14:00:46;;;;;;;0.90;0.90;;;;;;;;;;5095057;28;20189;-87
2021/06/30 14:03:14;;;;;;;1.48;0.82;;;;;;;;;;5094661;28;20220;-87
2021/06/30 14:05:42;;;;;;;0.75;0.75;;;;;;;;;;5094578;28;20200;-88
2021/06/30 14:08:13;;;;;;;0.77;0.77;;;;;;;;;;5094810;28;20204;-87
2021/06/30 14:10:42;;;;;;;0.88;0.88;;;;;;;;;;5094520;28;20228;-88
2021/06/30 14:13:10;;;;;;;0.90;0.90;;;;;;;;;;5094259;28;20209;-88
2021/06/30 14:15:38;;;;;;;0.75;0.75;;;;;;;;;;5094615;28;20200;-88
2021/06/30 14:18:07;;;;;;;1.20;1.20;;;;;;;;;;5094702;28;20258;-89
2021/06/30 14:20:35;;;;;;;0.80;0.80;;;;;;;;;;5094116;28;20197;-88
2021/06/30 14:23:07;;;;;;;0.90;0.90;;;;;;;;;;5094501;28;20207;-88
2021/06/30 14:25:35;;;;;;;0.88;0.88;;;;;;;;;;5094569;28;20207;-88
2021/06/30 14:28:02;;;;;;;1.13;1.10;;;;;;;;;;5094609;28;20211;-88
2021/06/30 14:30:31;;;;;;;0.80;0.80;;;;;;;;;;5094046;28;20650;-88
2021/06/30 14:32:59;;;;;;;0.63;0.63;;;;;;;;;;5093873;28;20566;-88
2021/06/30 14:35:28;;;;;;;0.60;0.60;;;;;;;;;;5094151;28;20200;-88
2021/06/30 14:37:56;;;;;;;0.70;0.70;;;;;;;;;;5094130;28;20183;-87
2021/06/30 14:40:24;;;;;;;0.73;0.73;;;;;;;;;;5094012;28;20545;-88
2021/06/30 14:42:51;;;;;;;0.70;0.70;;;;;;;;;;5094094;28;20565;-89
2021/06/30 14:45:20;;;;;;;1.10;1.00;;;;;;;;;;5094529;28;20272;-89
2021/06/30 14:47:48;;;;;;;1.00;0.90;;;;;;;;;;5094529;28;20658;-89
2021/06/30 14:50:17;;;;;;;0.63;0.63;;;;;;;;;;5094410;28;20192;-89
2021/06/30 14:52:46;;;;;;;0.80;0.80;;;;;;;;;;5094434;28;20243;-89
2021/06/30 14:55:13;;;;;;;0.77;0.77;;;;;;;;;;5094262;28;20283;-89
2021/06/30 14:57:41;;;;;;;0.75;0.75;;;;;;;;;;5094275;28;20621;-89
2021/06/30 15:00:12;;;;;;;0.80;0.80;;;;;;;;;;5094267;28;20249;-90
2021/06/30 15:02:40;;;;;;;1.35;0.70;;;;;;;;;;5093932;28;20197;-89
2021/06/30 15:05:09;;;;;;;0.70;0.70;;;;;;;;;;5093998;28;20302;-90
2021/06/30 15:07:37;;;;;;;0.85;0.82;;;;;;;;;;5093760;28;20626;-89
2021/06/30 15:10:09;;;;;;;0.60;0.60;;;;;;;;;;5093783;28;20192;-90
2021/06/30 15:12:37;;;;;;;0.70;0.70;;;;;;;;;;5093561;28;20303;-90
2021/06/30 15:15:09;;;;;;;1.02;1.02;;;;;;;;;;5093193;28;20761;-89
2021/06/30 15:17:37;;;;;;;0.77;0.77;;;;;;;;;;5093462;28;20209;-91
2021/06/30 15:20:07;;;;;;;0.68;0.68;;;;;;;;;;5093538;28;20231;-90
2021/06/30 15:22:34;;;;;;;0.68;0.68;;;;;;;;;;5093352;28;20678;-88